Skip Navigation LinksHome page > Weather > Current weather Skip Navigation Links

Current Weather

Converse County, Douglas, Wyo.

For information only: do not use for flight planning or navigation.
Latest weather
Observation time Friday, July 10, 2020 7:53 PM MDT
Local time Friday, July 10, 2020 8:05 PM MDT
Flight conditions Visual Meteorological Conditions
Winds
Wind direction North-Northeast (20°)
Wind speed 23 mph
Wind gusting to 36 mph
Peak wind speed 39 mph, 7:18 PM
Peak wind direction North-Northeast (20°)
Visibility 10 mi.
Sky condition
Ceiling unlimited
Sky clear
Temperature 80°F
Dewpoint 53°F
Altimeter 30.11 in.Hg
Derived measurements
Relative humidity 39%
Heat index 80°F
Density altitude 6260 ft.
Sea-level pressure 29.93 in.Hg
Remarks
Fully automated report.
Automated weather observing station with precipitation discriminator.
METAR KDGW 110153Z AUTO 02020G31KT 10SM CLR 27/12 A3011 RMK AO2 PK WND 02034/0118 SLP134 T02670117

Settings

Location code

InnerDrive.Weather 4.0.6770.0 Release CLR 4.0.30319.42000
Copyright ©2018 Inner Drive Technology. All rights reserved. Portions Copyright ©1986-2018 David Braverman.

Find weather

Site navigation


Skip Navigation Links

Place info

Page info

PayPal - The safer, easier way to pay online!

Return home.

Copyright ©2020 Inner Drive Technology. Purveyors of fine, hand-crafted computer software. Page printed 2020-07-11T02:05:00 UTC.